Time;durP1;ratioP1;P1;durP2;ratioP2;P2;SDS_P1;SDS_P2;PMS_P1;PMS_P2;Temp;Humidity;BMP_temperature;BMP_pressure;BME280_temperature;BME280_humidity;BME280_pressure;Samples;Min_cycle;Max_cycle;Signal;HPM_P1;HPM_P2
2022/11/11 04:12:17;;;;;;;1.63;1.08;;;16.30;53.00;;;;;;4910976;28;45293;-63
2022/11/11 04:17:27;;;;;;;1.88;1.38;;;16.30;53.00;;;;;;4921916;28;46917;-63
2022/11/11 04:22:43;;;;;;;1.73;1.30;;;16.30;53.00;;;;;;4899102;28;45399;-65
2022/11/11 04:30:40;;;;;;;1.27;1.17;;;16.30;53.00;;;;;;4908786;28;45436;-61
2022/11/11 04:33:06;;;;;;;1.52;1.08;;;16.30;53.00;;;;;;4913564;28;45380;-63
2022/11/11 04:35:31;;;;;;;1.90;1.30;;;16.20;52.90;;;;;;4913796;28;44953;-62
2022/11/11 04:41:02;;;;;;;1.10;1.00;;;16.30;53.00;;;;;;4911433;28;46065;-59
2022/11/11 04:43:26;;;;;;;1.10;0.85;;;16.30;53.00;;;;;;4911420;28;45709;-63
2022/11/11 04:45:52;;;;;;;1.23;0.95;;;16.20;53.00;;;;;;4909551;28;46096;-61
2022/11/11 04:48:18;;;;;;;1.85;1.23;;;16.30;53.00;;;;;;4912906;28;44997;-65
2022/11/11 04:50:44;;;;;;;1.15;1.00;;;16.30;53.00;;;;;;4911668;28;45817;-61
2022/11/11 04:53:11;;;;;;;1.48;1.10;;;16.20;53.00;;;;;;4910237;28;45709;-62
2022/11/11 04:58:26;;;;;;;1.15;1.00;;;16.30;53.00;;;;;;4908399;28;46052;-62
2022/11/11 05:00:52;;;;;;;1.75;1.38;;;16.20;53.00;;;;;;4912569;28;46329;-63
2022/11/11 05:03:20;;;;;;;1.10;1.00;;;16.30;53.00;;;;;;4909238;28;45086;-65
2022/11/11 05:08:56;;;;;;;2.30;1.27;;;16.30;53.00;;;;;;4913453;28;46981;-63
2022/11/11 05:11:32;;;;;;;1.17;1.00;;;16.20;53.00;;;;;;4895062;28;45694;-62
2022/11/11 05:22:16;;;;;;;1.00;0.90;;;16.20;53.00;;;;;;4914538;28;45077;-63
2022/11/11 05:27:26;;;;;;;2.00;1.13;;;16.20;53.10;;;;;;4907011;28;45327;-65
2022/11/11 05:29:51;;;;;;;2.00;1.20;;;16.20;53.00;;;;;;4914179;28;46390;-62
2022/11/11 05:32:18;;;;;;;1.30;1.10;;;16.20;53.00;;;;;;4926259;28;45312;-63
2022/11/11 05:34:43;;;;;;;1.38;1.08;;;16.20;53.00;;;;;;4900991;28;44932;-63
2022/11/11 05:37:09;;;;;;;1.38;1.25;;;16.20;53.10;;;;;;4914884;28;45163;-63
2022/11/11 05:39:35;;;;;;;1.48;1.25;;;16.20;53.00;;;;;;4918332;28;45682;-63
2022/11/11 05:42:00;;;;;;;1.83;1.38;;;16.20;53.10;;;;;;4919066;28;45237;-64
2022/11/11 05:44:26;;;;;;;1.65;1.15;;;16.20;53.00;;;;;;4920357;28;44974;-62
2022/11/11 05:46:51;;;;;;;1.17;1.08;;;16.20;53.00;;;;;;4918544;28;45464;-58
2022/11/11 05:49:17;;;;;;;1.10;1.00;;;16.20;53.00;;;;;;4916667;28;46162;-60
2022/11/11 05:51:43;;;;;;;1.23;0.95;;;16.20;53.00;;;;;;4918137;28;45499;-63
2022/11/11 05:54:09;;;;;;;1.50;1.10;;;16.20;53.10;;;;;;4907863;28;45321;-61
2022/11/11 05:56:34;;;;;;;1.58;1.33;;;16.20;53.00;;;;;;4923260;28;45538;-62
2022/11/11 05:59:00;;;;;;;1.13;1.00;;;16.20;53.10;;;;;;4917688;28;47009;-61
2022/11/11 06:01:25;;;;;;;1.13;0.98;;;16.20;53.00;;;;;;4916282;28;45040;-62
2022/11/11 06:03:51;;;;;;;1.30;1.10;;;16.10;53.00;;;;;;4916696;28;44988;-61
2022/11/11 06:06:17;;;;;;;1.10;0.90;;;16.20;53.10;;;;;;4911114;28;45556;-62
2022/11/11 06:08:42;;;;;;;1.45;1.00;;;16.20;53.00;;;;;;4923605;28;45579;-63
2022/11/11 06:11:08;;;;;;;1.60;1.30;;;16.20;53.00;;;;;;4917271;28;44968;-62
2022/11/11 06:13:33;;;;;;;1.52;1.20;;;16.10;53.00;;;;;;4927832;28;45393;-63
2022/11/11 06:15:59;;;;;;;1.20;1.00;;;16.20;53.00;;;;;;4904413;28;45210;-61
2022/11/11 06:18:25;;;;;;;1.40;1.17;;;16.20;53.10;;;;;;4915588;28;45907;-62
2022/11/11 06:20:57;;;;;;;1.25;1.10;;;16.10;53.00;;;;;;4915802;28;44947;-62
2022/11/11 06:23:23;;;;;;;1.25;1.13;;;16.20;53.00;;;;;;4904395;28;45695;-65
2022/11/11 06:28:32;;;;;;;1.80;1.27;;;16.10;53.00;;;;;;4915831;28;46328;-62
2022/11/11 06:30:58;;;;;;;1.50;1.00;;;16.10;53.00;;;;;;4919626;28;45153;-61
2022/11/11 06:33:24;;;;;;;1.13;1.00;;;16.10;53.00;;;;;;4916304;28;45192;-63
2022/11/11 06:35:50;;;;;;;1.10;1.00;;;16.10;53.00;;;;;;4916875;28;45518;-64
2022/11/11 06:38:15;;;;;;;1.98;1.30;;;16.10;53.00;;;;;;4915212;28;45398;-61
2022/11/11 06:40:41;;;;;;;1.80;1.30;;;16.10;53.10;;;;;;4916456;28;45211;-62
2022/11/11 06:43:07;;;;;;;2.72;1.40;;;16.10;53.00;;;;;;4922539;28;45207;-62
2022/11/11 06:45:34;;;;;;;1.38;1.10;;;16.10;53.00;;;;;;4923823;28;45285;-63
2022/11/11 06:47:59;;;;;;;1.10;1.00;;;16.10;53.00;;;;;;4917834;28;46147;-63
2022/11/11 06:50:25;;;;;;;1.27;1.15;;;16.10;53.00;;;;;;4920372;28;45536;-62
2022/11/11 06:52:51;;;;;;;1.15;1.00;;;16.10;53.00;;;;;;4923732;28;44632;-63
2022/11/11 06:55:17;;;;;;;1.10;1.00;;;16.10;53.10;;;;;;4919231;28;46272;-62
2022/11/11 06:57:43;;;;;;;1.40;1.30;;;16.10;53.10;;;;;;4919436;28;46097;-61
2022/11/11 07:00:09;;;;;;;1.02;0.82;;;16.10;53.10;;;;;;4920299;28;46173;-62
2022/11/11 07:02:34;;;;;;;1.80;1.17;;;16.10;53.00;;;;;;4917918;28;45621;-61
2022/11/11 07:05:00;;;;;;;1.33;0.90;;;16.10;53.00;;;;;;4926413;28;45189;-61
2022/11/11 07:07:27;;;;;;;1.10;0.93;;;16.10;53.10;;;;;;4933071;28;45565;-60
2022/11/11 07:09:54;;;;;;;1.42;1.08;;;16.10;53.00;;;;;;4921467;28;45720;-61
2022/11/11 07:12:20;;;;;;;1.13;1.02;;;16.10;53.00;;;;;;4918694;28;45599;-61
2022/11/11 07:14:45;;;;;;;1.23;1.10;;;16.10;53.00;;;;;;4926227;28;45289;-62
2022/11/11 07:17:11;;;;;;;1.33;1.10;;;16.10;53.00;;;;;;4919803;28;45942;-62
2022/11/11 07:19:36;;;;;;;1.42;1.00;;;16.10;53.00;;;;;;4915895;28;45558;-64
2022/11/11 07:22:02;;;;;;;1.38;1.17;;;16.10;53.00;;;;;;4920379;28;45864;-63
2022/11/11 07:24:28;;;;;;;1.23;1.00;;;16.10;53.00;;;;;;4925567;28;45212;-59
2022/11/11 07:26:53;;;;;;;1.48;1.00;;;16.10;53.00;;;;;;4922317;28;46116;-63
2022/11/11 07:29:19;;;;;;;1.30;1.08;;;16.10;53.00;;;;;;4920989;28;45043;-60
2022/11/11 07:31:44;;;;;;;1.13;1.00;;;16.10;53.00;;;;;;4923673;28;45544;-63
2022/11/11 07:34:10;;;;;;;1.33;1.00;;;16.10;52.90;;;;;;4934844;28;45192;-62
2022/11/11 07:36:35;;;;;;;1.10;1.00;;;16.10;52.90;;;;;;4927030;28;46117;-61
2022/11/11 07:39:01;;;;;;;1.38;1.10;;;16.10;52.90;;;;;;4917001;28;45252;-58
2022/11/11 07:41:26;;;;;;;1.40;0.95;;;16.10;52.90;;;;;;4923924;28;45369;-61
2022/11/11 07:43:52;;;;;;;1.10;1.00;;;16.10;52.90;;;;;;4928565;28;45512;-63
2022/11/11 07:46:17;;;;;;;2.08;1.33;;;16.10;52.90;;;;;;4924069;28;46359;-64
2022/11/11 07:48:43;;;;;;;1.58;1.13;;;16.10;52.90;;;;;;4920879;28;45199;-62
2022/11/11 07:51:08;;;;;;;1.60;1.00;;;16.10;52.90;;;;;;4919861;28;45160;-60
2022/11/11 07:53:34;;;;;;;2.00;1.17;;;16.10;52.90;;;;;;4918089;28;45615;-58
2022/11/11 07:56:00;;;;;;;1.45;1.20;;;16.10;52.90;;;;;;4920087;28;46745;-59
2022/11/11 07:58:25;;;;;;;1.20;1.00;;;16.10;53.40;;;;;;4918705;28;44812;-59
2022/11/11 08:00:51;;;;;;;1.65;1.45;;;16.10;52.90;;;;;;4916973;28;45435;-61
2022/11/11 08:03:16;;;;;;;1.17;1.00;;;16.10;53.00;;;;;;4921237;28;45376;-62
2022/11/11 08:05:42;;;;;;;0.98;0.88;;;16.10;52.90;;;;;;4915986;28;45975;-59
2022/11/11 08:08:08;;;;;;;1.63;1.15;;;16.10;52.90;;;;;;4918754;28;44825;-61
2022/11/11 08:10:34;;;;;;;0.73;0.73;;;16.10;52.90;;;;;;4916365;28;46178;-62
2022/11/11 08:15:44;;;;;;;0.98;0.93;;;16.10;52.80;;;;;;4924826;28;45876;-60
2022/11/11 08:18:10;;;;;;;1.58;1.17;;;16.20;52.80;;;;;;4917019;28;45634;-60
2022/11/11 08:20:37;;;;;;;1.27;1.17;;;16.20;52.80;;;;;;4906816;28;45504;-64
2022/11/11 08:23:09;;;;;;;1.33;1.17;;;16.20;52.70;;;;;;4915269;28;45339;-62
2022/11/11 08:25:35;;;;;;;1.17;0.83;;;16.20;53.00;;;;;;4921155;28;47432;-63
2022/11/11 08:28:03;;;;;;;1.23;1.00;;;16.20;52.70;;;;;;4901076;28;45270;-62
2022/11/11 08:30:28;;;;;;;1.63;1.02;;;16.20;52.60;;;;;;4920859;28;45609;-61
2022/11/11 08:33:04;;;;;;;1.92;1.40;;;16.20;52.60;;;;;;4908497;28;45993;-62
2022/11/11 08:35:30;;;;;;;1.52;1.08;;;16.20;52.60;;;;;;4906755;28;47327;-62
2022/11/11 08:37:55;;;;;;;1.33;1.10;;;16.20;52.60;;;;;;4909809;28;45334;-63
2022/11/11 08:40:21;;;;;;;1.40;1.27;;;16.30;52.60;;;;;;4901862;28;45576;-63
2022/11/11 08:42:47;;;;;;;1.17;1.00;;;16.20;52.60;;;;;;4917522;28;45424;-62
2022/11/11 08:45:12;;;;;;;1.52;1.30;;;16.20;52.50;;;;;;4923932;28;45548;-60
2022/11/11 08:47:38;;;;;;;1.40;1.10;;;16.30;52.50;;;;;;4918028;28;46002;-62
2022/11/11 08:50:04;;;;;;;0.73;0.70;;;16.20;52.60;;;;;;4918593;28;45273;-63
2022/11/11 08:52:30;;;;;;;1.10;1.00;;;16.20;52.60;;;;;;4908797;28;45327;-61
2022/11/11 08:54:55;;;;;;;1.50;1.05;;;16.20;52.70;;;;;;4917420;28;47195;-62
2022/11/11 08:57:21;;;;;;;1.58;1.13;;;16.20;52.80;;;;;;4918591;28;44946;-61
2022/11/11 08:59:46;;;;;;;1.05;0.95;;;16.20;52.70;;;;;;4916654;28;44925;-62
2022/11/11 09:02:12;;;;;;;1.45;1.00;;;16.20;52.70;;;;;;4916450;28;45484;-61
2022/11/11 09:04:38;;;;;;;1.50;1.35;;;16.20;52.70;;;;;;4911729;28;46176;-62
2022/11/11 09:07:05;;;;;;;1.10;0.90;;;16.20;52.70;;;;;;4906391;28;45405;-61
2022/11/11 09:09:31;;;;;;;1.55;1.15;;;16.20;52.70;;;;;;4916445;28;45607;-62
2022/11/11 09:11:56;;;;;;;1.25;0.90;;;16.20;52.70;;;;;;4915836;28;45569;-62
2022/11/11 09:14:22;;;;;;;1.55;1.00;;;16.20;52.60;;;;;;4916352;28;45550;-62
2022/11/11 09:16:47;;;;;;;1.20;0.80;;;16.20;52.70;;;;;;4920178;28;45139;-61
2022/11/11 09:19:13;;;;;;;1.58;1.23;;;16.20;52.70;;;;;;4918021;28;45175;-65
2022/11/11 09:21:38;;;;;;;1.58;1.05;;;16.20;52.70;;;;;;4918440;28;45141;-62
2022/11/11 09:24:04;;;;;;;1.30;1.10;;;16.20;52.70;;;;;;4917297;28;45821;-62
2022/11/11 09:26:30;;;;;;;1.05;0.95;;;16.20;52.80;;;;;;4919953;28;45185;-60
2022/11/11 09:28:55;;;;;;;1.67;0.98;;;16.20;52.70;;;;;;4919298;28;45707;-61
2022/11/11 09:31:22;;;;;;;1.00;0.90;;;16.20;52.70;;;;;;4917234;28;45155;-60
2022/11/11 09:33:51;;;;;;;1.23;0.82;;;16.20;52.80;;;;;;4922846;28;46016;-60
2022/11/11 09:36:17;;;;;;;1.23;0.90;;;16.20;52.70;;;;;;4915881;28;44970;-62
2022/11/11 09:38:42;;;;;;;1.95;1.17;;;16.20;52.80;;;;;;4915232;28;44730;-62
2022/11/11 09:41:19;;;;;;;1.15;0.98;;;16.20;52.70;;;;;;4920272;28;45050;-61
2022/11/11 09:43:50;;;;;;;1.50;1.10;;;16.20;52.80;;;;;;4905766;28;46144;-63
2022/11/11 09:46:37;;;;;;;1.48;1.10;;;16.20;53.40;;;;;;4900755;28;45278;-62
2022/11/11 09:49:18;;;;;;;1.10;1.00;;;16.20;52.70;;;;;;4914493;28;45048;-61
2022/11/11 09:51:53;;;;;;;1.67;0.93;;;16.20;52.60;;;;;;4916302;28;45682;-61
2022/11/11 09:54:30;;;;;;;1.25;1.10;;;16.20;52.60;;;;;;4909607;28;46204;-62
2022/11/11 09:56:58;;;;;;;1.05;0.90;;;16.20;52.70;;;;;;4880953;28;45537;-62
2022/11/11 09:59:26;;;;;;;1.30;1.00;;;16.30;52.70;;;;;;4914147;28;44943;-61
2022/11/11 10:01:55;;;;;;;1.20;0.95;;;16.30;52.70;;;;;;4912729;28;46644;-61
2022/11/11 10:04:31;;;;;;;1.05;0.95;;;16.30;52.60;;;;;;4911378;28;45379;-63
2022/11/11 10:07:02;;;;;;;1.67;1.08;;;16.30;52.60;;;;;;4897274;28;44651;-62
2022/11/11 10:09:36;;;;;;;0.93;0.80;;;16.30;52.60;;;;;;4919780;28;44938;-63
2022/11/11 10:12:09;;;;;;;1.10;1.00;;;16.30;52.60;;;;;;4916012;28;45239;-62
2022/11/11 10:14:40;;;;;;;1.40;1.00;;;16.30;52.60;;;;;;4914163;28;46160;-61
2022/11/11 10:17:17;;;;;;;1.48;1.13;;;16.30;52.60;;;;;;4917419;28;45484;-64
2022/11/11 10:20:12;;;;;;;1.80;1.08;;;16.30;52.60;;;;;;4924097;28;45520;-62
2022/11/11 10:22:39;;;;;;;1.40;0.98;;;16.30;52.60;;;;;;4917046;28;45322;-64
2022/11/11 10:25:11;;;;;;;0.77;0.77;;;16.30;52.50;;;;;;4920708;28;45149;-59
2022/11/11 10:27:39;;;;;;;1.17;0.90;;;16.40;52.50;;;;;;4917934;28;44671;-62
2022/11/11 10:30:19;;;;;;;0.80;0.80;;;16.40;52.50;;;;;;4921129;28;45479;-64
2022/11/11 10:32:52;;;;;;;1.08;0.98;;;16.40;52.50;;;;;;4916511;28;45243;-62
2022/11/11 10:35:21;;;;;;;1.10;0.95;;;16.40;52.50;;;;;;4918823;28;46968;-62
2022/11/11 10:37:46;;;;;;;1.42;0.95;;;16.40;52.50;;;;;;4926563;28;45704;-62
2022/11/11 10:40:21;;;;;;;1.15;1.00;;;16.40;52.40;;;;;;4910377;28;45431;-62
2022/11/11 10:42:47;;;;;;;1.30;1.00;;;16.40;52.40;;;;;;4915177;28;45259;-61
2022/11/11 10:45:40;;;;;;;1.00;0.90;;;16.40;52.40;;;;;;4928300;28;46057;-62
2022/11/11 10:48:11;;;;;;;1.52;0.93;;;16.40;52.40;;;;;;4921129;28;45262;-60
2022/11/11 10:50:39;;;;;;;0.88;0.80;;;16.40;52.30;;;;;;4910566;28;45526;-62
2022/11/11 10:53:13;;;;;;;1.10;1.00;;;16.40;52.30;;;;;;4914423;28;45411;-66
2022/11/11 10:55:43;;;;;;;1.10;0.80;;;16.50;52.40;;;;;;4914740;28;46010;-62
2022/11/11 10:58:15;;;;;;;1.45;1.10;;;16.50;52.40;;;;;;4915045;28;45226;-62
2022/11/11 11:00:42;;;;;;;0.90;0.80;;;16.40;52.30;;;;;;4903454;28;45444;-64
2022/11/11 11:03:17;;;;;;;0.82;0.80;;;16.40;52.30;;;;;;4896145;29;45104;-63
2022/11/11 11:05:54;;;;;;;1.23;0.90;;;16.40;52.30;;;;;;4897681;28;46471;-61
2022/11/11 11:08:25;;;;;;;1.02;0.90;;;16.50;52.40;;;;;;4896480;28;45512;-64
2022/11/11 11:11:25;;;;;;;0.98;0.88;;;16.40;52.40;;;;;;4890190;28;45650;-62
2022/11/11 11:13:52;;;;;;;0.80;0.80;;;16.50;52.40;;;;;;4897210;28;45223;-62
2022/11/11 11:16:24;;;;;;;1.15;1.00;;;16.50;52.40;;;;;;4897284;28;45226;-61
2022/11/11 11:19:24;;;;;;;1.07;0.93;;;16.50;52.40;;;;;;4888073;28;45259;-64
2022/11/11 11:22:00;;;;;;;1.10;1.00;;;16.50;52.30;;;;;;4900231;28;45372;-65
2022/11/11 11:24:28;;;;;;;1.05;0.85;;;16.50;52.90;;;;;;4897211;28;44840;-63
2022/11/11 11:26:56;;;;;;;1.10;0.90;;;16.50;52.30;;;;;;4855085;28;46942;-61
2022/11/11 11:29:25;;;;;;;1.33;1.10;;;16.50;52.30;;;;;;4890697;28;47138;-60
2022/11/11 11:31:51;;;;;;;0.82;0.77;;;16.50;52.30;;;;;;4900032;28;45370;-67
2022/11/11 11:34:17;;;;;;;1.15;0.95;;;16.50;52.30;;;;;;4897493;28;45362;-63
2022/11/11 11:36:42;;;;;;;1.35;1.00;;;16.50;52.30;;;;;;4888863;28;46821;-62
2022/11/11 11:39:08;;;;;;;1.40;1.00;;;16.50;52.30;;;;;;4900324;28;44936;-59
2022/11/11 11:41:40;;;;;;;1.17;0.90;;;16.50;52.30;;;;;;4885026;28;45262;-61
2022/11/11 11:44:31;;;;;;;1.27;1.02;;;16.50;52.30;;;;;;4897089;28;45233;-60
2022/11/11 11:47:22;;;;;;;0.80;0.80;;;16.50;52.30;;;;;;4884020;28;46199;-60
2022/11/11 11:50:29;;;;;;;0.95;0.80;;;16.50;52.20;;;;;;4886599;28;44953;-60
2022/11/11 11:53:39;;;;;;;1.02;0.90;;;16.50;52.20;;;;;;4886962;28;45257;-60
2022/11/11 11:56:14;;;;;;;1.05;0.70;;;16.50;52.20;;;;;;4880153;28;45697;-60
2022/11/11 11:59:11;;;;;;;0.95;0.82;;;16.50;52.30;;;;;;4890813;28;47206;-60
2022/11/11 12:01:57;;;;;;;1.25;0.90;;;16.60;52.30;;;;;;4904577;28;45818;-61
2022/11/11 12:04:27;;;;;;;0.80;0.80;;;16.60;52.20;;;;;;4920077;28;44969;-63
2022/11/11 12:07:03;;;;;;;0.75;0.75;;;16.60;52.20;;;;;;4900219;28;45361;-59
2022/11/11 12:09:38;;;;;;;1.25;0.90;;;16.60;52.20;;;;;;4902609;28;46261;-66
2022/11/11 12:12:24;;;;;;;1.00;0.77;;;16.60;52.20;;;;;;4897563;28;45033;-63
2022/11/11 12:14:59;;;;;;;1.10;1.00;;;16.60;52.20;;;;;;4902520;28;45368;-62
2022/11/11 12:17:53;;;;;;;1.05;0.95;;;16.60;52.20;;;;;;4896146;28;45143;-61
2022/11/11 12:20:26;;;;;;;1.48;1.00;;;16.60;52.20;;;;;;4901709;28;46452;-62
2022/11/11 12:23:07;;;;;;;0.93;0.80;;;16.60;52.30;;;;;;4905738;28;45594;-61
2022/11/11 12:26:02;;;;;;;1.45;1.20;;;16.60;52.30;;;;;;4922523;28;45599;-62
2022/11/11 12:28:43;;;;;;;0.80;0.70;;;16.60;52.30;;;;;;4890523;28;45533;-62
2022/11/11 12:31:11;;;;;;;1.00;0.80;;;16.60;52.30;;;;;;4910363;28;46208;-63
2022/11/11 12:33:55;;;;;;;1.00;0.90;;;16.60;52.30;;;;;;4917732;28;45623;-63
2022/11/11 12:36:27;;;;;;;1.00;0.90;;;16.60;52.30;;;;;;4895307;28;45226;-63
2022/11/11 12:39:29;;;;;;;1.00;0.80;;;16.60;52.40;;;;;;4910748;28;45703;-64
2022/11/11 12:42:10;;;;;;;0.95;0.80;;;16.60;52.30;;;;;;4850828;29;47082;-62
2022/11/11 12:45:04;;;;;;;1.10;0.90;;;16.50;52.30;;;;;;4900277;28;45593;-63
2022/11/11 12:47:50;;;;;;;;;;;16.60;52.40;;;;;;4906648;28;45487;-60
2022/11/11 12:50:30;;;;;;;1.13;0.73;;;16.50;52.40;;;;;;4906415;28;45674;-62
2022/11/11 12:53:37;;;;;;;0.85;0.80;;;16.50;52.40;;;;;;4898525;28;46081;-61
2022/11/11 12:56:50;;;;;;;1.02;0.93;;;16.50;52.40;;;;;;4919604;28;45547;-63
2022/11/11 12:59:48;;;;;;;0.80;0.70;;;16.50;52.40;;;;;;4875946;29;45072;-62
2022/11/11 13:02:32;;;;;;;1.20;0.90;;;16.50;52.40;;;;;;4889222;28;44790;-64
2022/11/11 13:05:15;;;;;;;0.93;0.80;;;16.50;52.50;;;;;;4915453;28;46541;-63
2022/11/11 13:08:04;;;;;;;1.33;1.10;;;16.50;52.50;;;;;;4928258;28;45562;-65
2022/11/11 13:10:42;;;;;;;1.05;0.95;;;16.50;52.50;;;;;;4913594;28;45367;-62
2022/11/11 13:13:46;;;;;;;1.00;0.90;;;16.50;52.50;;;;;;4914852;28;45618;-62
2022/11/11 13:16:11;;;;;;;;;;;16.50;52.40;;;;;;4920501;28;46044;-62
2022/11/11 13:19:03;;;;;;;0.60;0.60;;;16.50;52.40;;;;;;4917026;28;45351;-61
2022/11/11 13:21:49;;;;;;;0.80;0.70;;;16.50;52.40;;;;;;4914384;28;45341;-63
2022/11/11 13:24:17;;;;;;;0.98;0.82;;;16.60;52.40;;;;;;4919773;28;45186;-62
2022/11/11 13:26:48;;;;;;;1.08;0.88;;;16.50;52.40;;;;;;4916867;28;46323;-62
2022/11/11 13:29:41;;;;;;;0.70;0.70;;;16.60;52.40;;;;;;4891258;28;45471;-64
2022/11/11 13:32:09;;;;;;;1.05;0.82;;;16.50;52.40;;;;;;4913743;28;44805;-63
2022/11/11 13:34:35;;;;;;;1.17;0.80;;;16.60;52.40;;;;;;4916604;28;45008;-65
2022/11/11 13:37:02;;;;;;;0.98;0.80;;;16.60;52.40;;;;;;4921183;28;46300;-62
2022/11/11 13:39:48;;;;;;;1.17;0.95;;;16.60;52.40;;;;;;4920818;28;45248;-63
2022/11/11 13:42:22;;;;;;;1.25;0.90;;;16.60;52.40;;;;;;4913857;28;45378;-64
2022/11/11 13:44:55;;;;;;;1.23;0.98;;;16.60;52.40;;;;;;4912488;28;45542;-61
2022/11/11 13:47:43;;;;;;;1.00;0.80;;;16.60;52.40;;;;;;4915389;28;45257;-61
2022/11/11 13:50:20;;;;;;;1.50;0.77;;;16.60;52.40;;;;;;4913770;28;45206;-62
2022/11/11 13:53:00;;;;;;;0.80;0.80;;;16.60;52.40;;;;;;4913591;28;45487;-61
2022/11/11 13:55:38;;;;;;;1.20;0.90;;;16.60;52.30;;;;;;4896941;28;45537;-61
2022/11/11 13:58:03;;;;;;;0.70;0.65;;;16.60;52.40;;;;;;4926741;28;46734;-61
2022/11/11 14:00:36;;;;;;;1.00;0.90;;;16.60;52.40;;;;;;4914710;28;45678;-61
2022/11/11 14:03:17;;;;;;;0.85;0.85;;;16.60;52.40;;;;;;4899190;28;45446;-63
2022/11/11 14:05:43;;;;;;;0.90;0.85;;;16.60;52.30;;;;;;4920960;28;45695;-59
2022/11/11 14:08:09;;;;;;;0.88;0.77;;;16.60;52.30;;;;;;4919437;28;46013;-65
2022/11/11 14:10:34;;;;;;;1.40;0.98;;;16.60;52.30;;;;;;4906373;28;45548;-62
2022/11/11 14:13:25;;;;;;;1.08;0.90;;;16.60;52.90;;;;;;4914656;28;45046;-61
2022/11/11 14:15:53;;;;;;;1.13;0.75;;;16.60;52.30;;;;;;4911914;28;45508;-62
2022/11/11 14:18:19;;;;;;;1.13;1.00;;;16.60;52.40;;;;;;4893801;28;45002;-62
2022/11/11 14:20:55;;;;;;;1.35;0.80;;;16.60;52.40;;;;;;4913583;28;45605;-62
2022/11/11 14:23:40;;;;;;;1.60;1.10;;;16.60;52.30;;;;;;4915654;28;45585;-61
2022/11/11 14:26:08;;;;;;;1.60;0.90;;;16.60;52.30;;;;;;4895221;28;45195;-64
2022/11/11 14:28:48;;;;;;;0.80;0.80;;;16.60;52.40;;;;;;4906575;28;45216;-60
2022/11/11 14:31:14;;;;;;;1.45;1.10;;;16.60;52.40;;;;;;4907263;28;45019;-63
2022/11/11 14:33:58;;;;;;;0.73;0.73;;;16.60;52.40;;;;;;4918793;28;45595;-61
2022/11/11 14:36:32;;;;;;;1.02;0.93;;;16.60;52.30;;;;;;4917635;28;45056;-64
2022/11/11 14:39:36;;;;;;;0.93;0.90;;;16.60;52.30;;;;;;4908673;28;46899;-66
2022/11/11 14:42:01;;;;;;;1.17;0.80;;;16.60;52.30;;;;;;4893635;28;45228;-63
2022/11/11 14:44:33;;;;;;;0.77;0.70;;;16.60;52.40;;;;;;4898136;28;45132;-59
2022/11/11 14:47:01;;;;;;;0.73;0.70;;;16.60;52.30;;;;;;4914287;28;45580;-62
2022/11/11 14:49:54;;;;;;;0.90;0.65;;;16.60;52.30;;;;;;4906807;28;46159;-62
2022/11/11 14:52:25;;;;;;;0.65;0.65;;;16.60;52.30;;;;;;4907570;28;45230;-61
2022/11/11 14:55:00;;;;;;;0.88;0.75;;;16.60;52.40;;;;;;4893638;28;45707;-58
2022/11/11 14:57:45;;;;;;;0.80;0.70;;;16.60;52.30;;;;;;4904226;28;45967;-60
2022/11/11 15:00:18;;;;;;;1.30;0.90;;;16.60;52.40;;;;;;4893434;28;46033;-63
2022/11/11 15:02:48;;;;;;;1.23;0.85;;;16.60;52.40;;;;;;4906516;28;45232;-65
2022/11/11 15:05:20;;;;;;;0.80;0.80;;;16.60;52.40;;;;;;4915236;28;45688;-63
2022/11/11 15:08:00;;;;;;;1.60;0.82;;;16.60;52.40;;;;;;4889572;28;45391;-63
2022/11/11 15:10:47;;;;;;;1.15;0.90;;;16.60;52.40;;;;;;4886566;28;46899;-62
2022/11/11 15:13:29;;;;;;;1.00;0.90;;;16.60;52.40;;;;;;4910832;28;44943;-65
2022/11/11 15:16:17;;;;;;;1.08;0.80;;;16.60;52.40;;;;;;4901174;28;45153;-60
2022/11/11 15:19:20;;;;;;;0.93;0.82;;;16.60;52.40;;;;;;4894858;28;45636;-63
2022/11/11 15:21:46;;;;;;;;;;;16.60;52.40;;;;;;4904844;28;46191;-64
2022/11/11 15:24:28;;;;;;;1.00;0.80;;;16.60;52.40;;;;;;4917035;28;45559;-63
2022/11/11 15:27:11;;;;;;;1.30;1.05;;;16.60;52.40;;;;;;4886431;28;45550;-62
2022/11/11 15:29:55;;;;;;;0.80;0.80;;;16.60;53.00;;;;;;4910331;28;45486;-61
2022/11/11 15:32:30;;;;;;;0.80;0.70;;;16.60;52.40;;;;;;4897401;28;46699;-59
2022/11/11 15:35:05;;;;;;;1.08;0.80;;;16.60;52.40;;;;;;4918514;28;44897;-61
2022/11/11 15:37:30;;;;;;;1.00;0.80;;;16.60;52.50;;;;;;4917226;28;45270;-62
2022/11/11 15:39:57;;;;;;;1.00;0.90;;;16.60;52.50;;;;;;4902919;28;45432;-60
2022/11/11 15:42:30;;;;;;;0.80;0.80;;;16.60;52.50;;;;;;4902281;28;45345;-63
2022/11/11 15:45:00;;;;;;;1.17;0.90;;;16.60;52.50;;;;;;4906176;28;44870;-62
2022/11/11 15:47:26;;;;;;;1.35;1.05;;;16.60;52.50;;;;;;4892763;28;45080;-62
2022/11/11 15:49:51;;;;;;;0.90;0.80;;;16.60;52.50;;;;;;4896645;28;45444;-64
2022/11/11 15:52:33;;;;;;;1.00;0.80;;;16.60;52.50;;;;;;4912645;28;46104;-63
2022/11/11 15:55:00;;;;;;;0.90;0.90;;;16.60;52.50;;;;;;4911964;28;45413;-62
2022/11/11 15:57:32;;;;;;;1.27;0.90;;;16.60;52.50;;;;;;4896214;28;45195;-63
2022/11/11 15:59:58;;;;;;;1.00;0.77;;;16.60;52.50;;;;;;4896976;28;44822;-64
2022/11/11 16:02:27;;;;;;;2.08;1.00;;;16.60;52.50;;;;;;4910653;28;45624;-64
2022/11/11 16:04:55;;;;;;;0.77;0.77;;;16.60;52.60;;;;;;4894273;28;45281;-63
2022/11/11 16:07:24;;;;;;;0.88;0.88;;;16.50;52.50;;;;;;4893521;28;45370;-68
2022/11/11 16:09:49;;;;;;;0.63;0.63;;;16.60;52.50;;;;;;4911793;28;45649;-62
2022/11/11 16:12:19;;;;;;;0.80;0.80;;;16.50;52.50;;;;;;4910174;28;46196;-63
2022/11/11 16:14:45;;;;;;;1.20;0.82;;;16.60;52.50;;;;;;4894668;28;45255;-62
2022/11/11 16:17:11;;;;;;;1.27;0.88;;;16.60;52.50;;;;;;4911273;28;45556;-64
2022/11/11 16:19:41;;;;;;;0.70;0.70;;;16.60;52.50;;;;;;4881956;28;45334;-63
2022/11/11 16:22:13;;;;;;;0.55;0.55;;;16.50;52.50;;;;;;4913141;28;46387;-64
2022/11/11 16:24:40;;;;;;;0.60;0.60;;;16.60;52.50;;;;;;4917728;28;45369;-64
2022/11/11 16:27:06;;;;;;;1.02;0.85;;;16.60;52.50;;;;;;4892903;28;45375;-62
2022/11/11 16:29:36;;;;;;;1.02;0.93;;;16.50;52.50;;;;;;4877970;28;45404;-63
2022/11/11 16:32:19;;;;;;;1.05;0.77;;;16.60;52.50;;;;;;4890468;28;45913;-64
2022/11/11 16:34:45;;;;;;;0.60;0.60;;;16.60;52.50;;;;;;4886655;28;46776;-61
2022/11/11 16:37:12;;;;;;;0.70;0.70;;;16.50;52.50;;;;;;4896177;28;45162;-64
2022/11/11 16:39:37;;;;;;;0.88;0.75;;;16.50;52.50;;;;;;4893446;28;46450;-61
2022/11/11 16:42:20;;;;;;;0.80;0.60;;;16.60;52.50;;;;;;4911029;28;46195;-62
2022/11/11 16:44:53;;;;;;;0.90;0.73;;;16.60;52.50;;;;;;4895372;28;45398;-65
2022/11/11 16:47:40;;;;;;;1.05;0.82;;;16.60;52.50;;;;;;4902792;28;46403;-65
2022/11/11 16:50:18;;;;;;;1.17;0.65;;;16.60;52.50;;;;;;4903786;28;47042;-63
2022/11/11 16:52:55;;;;;;;0.70;0.70;;;16.50;52.50;;;;;;4895104;28;45910;-64
2022/11/11 16:55:30;;;;;;;0.90;0.70;;;16.50;52.50;;;;;;4894093;28;45416;-62
2022/11/11 16:57:59;;;;;;;0.77;0.70;;;16.50;52.50;;;;;;4893115;28;45455;-62
2022/11/11 17:00:25;;;;;;;0.80;0.80;;;16.50;52.50;;;;;;4893050;28;45621;-60
2022/11/11 17:03:09;;;;;;;0.60;0.60;;;16.50;52.50;;;;;;4895375;28;45924;-61
2022/11/11 17:05:53;;;;;;;0.82;0.82;;;16.50;52.60;;;;;;4907343;28;45543;-63
2022/11/11 17:08:45;;;;;;;0.73;0.65;;;16.50;52.50;;;;;;4907970;28;45510;-63
2022/11/11 17:11:40;;;;;;;1.30;0.98;;;16.50;52.60;;;;;;4906500;28;45305;-63
2022/11/11 17:14:06;;;;;;;1.13;0.80;;;16.50;52.50;;;;;;4899735;28;46189;-65
2022/11/11 17:16:31;;;;;;;0.80;0.80;;;16.50;52.50;;;;;;4909040;28;45271;-64
2022/11/11 17:19:00;;;;;;;1.25;0.70;;;16.50;52.50;;;;;;4891816;28;46098;-61
2022/11/11 17:21:26;;;;;;;1.25;0.85;;;16.50;52.60;;;;;;4910269;28;45044;-63
2022/11/11 17:23:52;;;;;;;1.00;0.90;;;16.50;52.60;;;;;;4909697;28;45874;-67
2022/11/11 17:26:17;;;;;;;0.98;0.77;;;16.50;52.60;;;;;;4915143;28;45375;-64
2022/11/11 17:28:43;;;;;;;1.00;0.90;;;16.50;52.60;;;;;;4910987;28;45249;-64
2022/11/11 17:31:10;;;;;;;1.00;0.90;;;16.50;52.60;;;;;;4895232;28;45456;-64
2022/11/11 17:33:36;;;;;;;0.60;0.60;;;16.50;52.50;;;;;;4894205;28;45328;-63
2022/11/11 17:36:01;;;;;;;0.80;0.80;;;16.50;52.50;;;;;;4909530;28;45506;-61
2022/11/11 17:38:27;;;;;;;0.93;0.75;;;16.50;52.60;;;;;;4908733;28;45127;-63
2022/11/11 17:40:53;;;;;;;1.30;0.90;;;16.50;52.50;;;;;;4907200;28;45304;-62
2022/11/11 17:43:18;;;;;;;0.60;0.60;;;16.50;52.60;;;;;;4901821;28;45246;-63
2022/11/11 17:45:44;;;;;;;1.05;0.90;;;16.50;52.60;;;;;;4909840;28;45351;-62
2022/11/11 17:48:10;;;;;;;1.30;1.02;;;16.50;52.60;;;;;;4913502;28;45308;-63
2022/11/11 17:50:36;;;;;;;1.08;0.90;;;16.50;52.40;;;;;;4913182;28;45674;-62
2022/11/11 17:53:03;;;;;;;1.13;0.95;;;16.50;52.60;;;;;;4907597;28;46299;-63
2022/11/11 17:55:30;;;;;;;0.90;0.70;;;16.50;52.60;;;;;;4894876;28;45261;-63
2022/11/11 17:57:56;;;;;;;0.70;0.60;;;16.50;52.60;;;;;;4908053;28;45199;-61
2022/11/11 18:00:22;;;;;;;0.70;0.70;;;16.50;52.60;;;;;;4915645;28;45546;-64